Time;durP1;ratioP1;P1;durP2;ratioP2;P2;SDS_P1;SDS_P2;PMS_P1;PMS_P2;Temp;Humidity;BMP_temperature;BMP_pressure;BME280_temperature;BME280_humidity;BME280_pressure;Samples;Min_cycle;Max_cycle;Signal;HPM_P1;HPM_P2
2023/08/29 00:01:32;;;;;;;0.80;0.80;;;;;;;19.43;69.64;96328.06;5023303;28;20127;-65
2023/08/29 00:03:59;;;;;;;0.90;0.90;;;;;;;19.72;70.17;96383.44;5023352;28;20530;-65
2023/08/29 00:06:25;;;;;;;0.88;0.88;;;;;;;19.66;70.66;96390.84;5023568;28;20057;-65
2023/08/29 00:08:52;;;;;;;0.90;0.90;;;;;;;19.44;71.40;96363.34;5022531;28;20053;-65
2023/08/29 00:11:19;;;;;;;0.88;0.88;;;;;;;19.17;71.94;96337.59;5022387;28;20136;-64
2023/08/29 00:13:45;;;;;;;0.80;0.80;;;;;;;19.20;72.20;96336.75;5023772;28;20057;-64
2023/08/29 00:16:16;;;;;;;0.80;0.80;;;;;;;19.45;72.71;96379.00;5023243;28;20055;-63
2023/08/29 00:18:43;;;;;;;0.90;0.90;;;;;;;19.42;73.12;96382.69;5021839;28;20045;-64
2023/08/29 00:21:12;;;;;;;0.80;0.80;;;;;;;19.18;73.13;96332.78;5023294;28;20045;-64
2023/08/29 00:23:38;;;;;;;0.80;0.80;;;;;;;19.14;72.84;96332.88;5023133;28;20092;-64
2023/08/29 00:26:05;;;;;;;0.80;0.80;;;;;;;19.21;73.25;96343.13;5022644;28;20045;-65
2023/08/29 00:28:32;;;;;;;0.88;0.88;;;;;;;19.48;73.48;96386.53;5022809;28;20068;-65
2023/08/29 00:30:58;;;;;;;0.80;0.80;;;;;;;19.45;73.60;96393.03;5022549;28;20452;-64
2023/08/29 00:33:25;;;;;;;0.80;0.80;;;;;;;19.52;73.51;96381.59;5021974;28;20053;-64
2023/08/29 00:35:51;;;;;;;0.90;0.90;;;;;;;19.54;73.56;96395.19;5022336;28;20057;-64
2023/08/29 00:38:18;;;;;;;0.90;0.90;;;;;;;19.62;73.36;96376.91;5020598;28;20053;-64
2023/08/29 00:40:45;;;;;;;0.90;0.90;;;;;;;19.62;73.33;96390.19;5024011;28;20451;-64
2023/08/29 00:43:11;;;;;;;0.90;0.90;;;;;;;18.84;73.63;96285.59;5041967;28;20530;-64
2023/08/29 00:45:39;;;;;;;0.80;0.80;;;;;;;19.51;73.38;96385.63;5042776;28;20061;-63
2023/08/29 00:48:08;;;;;;;0.88;0.88;;;;;;;19.44;73.44;96383.00;5043148;28;20084;-64
2023/08/29 00:50:35;;;;;;;0.80;0.80;;;;;;;18.89;74.18;96327.16;5043024;28;20427;-65
2023/08/29 00:53:05;;;;;;;0.80;0.80;;;;;;;19.23;74.66;96375.16;5043806;28;20055;-64
2023/08/29 00:55:34;;;;;;;0.88;0.88;;;;;;;18.41;74.22;96229.09;5041712;28;20051;-64
2023/08/29 00:58:02;;;;;;;0.80;0.80;;;;;;;19.18;74.81;96374.91;5043266;28;20052;-64
2023/08/29 01:00:31;;;;;;;0.80;0.80;;;;;;;19.14;75.03;96372.19;5041136;28;20466;-63
2023/08/29 01:02:58;;;;;;;0.90;0.90;;;;;;;19.08;75.23;96367.56;5040769;28;20474;-63
2023/08/29 01:05:28;;;;;;;0.80;0.80;;;;;;;18.55;75.37;96282.00;5020476;28;20061;-64
2023/08/29 01:07:58;;;;;;;0.82;0.82;;;;;;;18.45;76.67;96299.88;5021591;28;20542;-63
2023/08/29 01:10:54;;;;;;;0.82;0.82;;;;;;;18.98;76.59;96363.81;5021148;28;20112;-64
2023/08/29 01:14:03;;;;;;;0.80;0.80;;;;;;;19.06;76.48;96358.81;5018391;28;20463;-64
2023/08/29 01:16:38;;;;;;;0.70;0.70;;;;;;;19.10;76.11;96353.88;5015790;28;20076;-64
2023/08/29 01:19:15;;;;;;;0.90;0.90;;;;;;;19.10;76.41;96348.25;5020650;28;20590;-63
2023/08/29 01:22:28;;;;;;;0.90;0.90;;;;;;;19.10;76.51;96348.25;5021107;28;20053;-63
2023/08/29 01:25:13;;;;;;;0.90;0.90;;;;;;;19.10;76.27;96357.47;5010833;28;20061;-64
2023/08/29 01:27:40;;;;;;;0.80;0.80;;;;;;;18.98;76.89;96355.41;5020648;28;20413;-65
2023/08/29 01:30:07;;;;;;;0.77;0.77;;;;;;;18.78;77.16;96342.72;5022258;28;20053;-65
2023/08/29 01:32:35;;;;;;;0.80;0.80;;;;;;;18.84;77.27;96352.19;5022367;28;20133;-65
2023/08/29 01:35:02;;;;;;;0.80;0.80;;;;;;;18.84;77.08;96400.66;5022451;28;20126;-64
2023/08/29 01:37:29;;;;;;;0.90;0.90;;;;;;;18.76;76.76;96351.56;5020109;28;20072;-63
2023/08/29 01:39:55;;;;;;;0.80;0.80;;;;;;;18.75;76.68;96344.38;5022176;28;20328;-65
2023/08/29 01:42:22;;;;;;;0.80;0.80;;;;;;;18.18;77.00;96259.31;5022202;28;20061;-64
2023/08/29 01:44:49;;;;;;;0.80;0.80;;;;;;;18.68;76.87;96347.38;5021932;28;20064;-65
2023/08/29 01:47:16;;;;;;;0.80;0.80;;;;;;;18.63;77.35;96347.91;5022395;28;20076;-65
2023/08/29 01:49:43;;;;;;;0.80;0.80;;;;;;;18.65;77.28;96345.44;5022026;28;20045;-65
2023/08/29 01:52:10;;;;;;;0.80;0.80;;;;;;;18.68;77.67;96338.16;5020679;28;20483;-65
2023/08/29 01:54:36;;;;;;;0.80;0.80;;;;;;;18.28;77.96;96267.44;5022233;28;20047;-66
2023/08/29 01:57:05;;;;;;;0.80;0.80;;;;;;;18.77;78.08;96341.13;5013644;28;20056;-65
2023/08/29 01:59:33;;;;;;;0.80;0.80;;;;;;;18.72;78.14;96334.03;5034909;28;20435;-66
2023/08/29 02:02:01;;;;;;;0.80;0.80;;;;;;;18.62;78.84;96335.09;5027596;28;20052;-65
2023/08/29 02:04:29;;;;;;;0.80;0.80;;;;;;;18.32;79.09;96282.16;5041769;28;20098;-65
2023/08/29 02:06:55;;;;;;;0.90;0.90;;;;;;;18.68;78.82;96332.56;5040839;28;20057;-65
2023/08/29 02:09:22;;;;;;;0.80;0.80;;;;;;;18.36;78.79;96288.47;5042273;28;20564;-65
2023/08/29 02:11:49;;;;;;;0.88;0.88;;;;;;;18.63;79.07;96333.88;5040991;28;20053;-64
2023/08/29 02:14:15;;;;;;;0.90;0.90;;;;;;;18.63;78.78;96333.88;5042381;28;20060;-65
2023/08/29 02:16:42;;;;;;;0.80;0.80;;;;;;;18.67;78.01;96337.38;5042096;28;20498;-66
2023/08/29 02:19:09;;;;;;;0.80;0.80;;;;;;;18.67;77.62;96331.75;5041964;28;20045;-65
2023/08/29 02:21:36;;;;;;;0.70;0.70;;;;;;;18.59;78.04;96324.00;5041997;28;20045;-65
2023/08/29 02:24:03;;;;;;;0.80;0.80;;;;;;;18.59;78.14;96324.75;5041268;28;20474;-65
2023/08/29 02:26:29;;;;;;;0.80;0.80;;;;;;;18.59;77.77;96324.75;5039733;28;20045;-65
2023/08/29 02:28:56;;;;;;;0.70;0.70;;;;;;;18.04;78.41;96258.44;5039734;28;20489;-65
2023/08/29 02:31:22;;;;;;;0.77;0.77;;;;;;;18.47;78.85;96317.06;5040994;28;20067;-66
2023/08/29 02:33:49;;;;;;;0.80;0.80;;;;;;;18.51;78.99;96311.38;5040280;28;20443;-65
2023/08/29 02:36:16;;;;;;;0.80;0.80;;;;;;;18.59;78.91;96307.16;5040368;28;20068;-65
2023/08/29 02:38:42;;;;;;;0.80;0.80;;;;;;;18.61;78.91;96294.25;5040425;28;20050;-65
2023/08/29 02:41:11;;;;;;;0.80;0.80;;;;;;;18.62;79.08;96295.81;5040562;28;20056;-64
2023/08/29 02:43:38;;;;;;;0.80;0.80;;;;;;;18.16;78.43;96234.53;5038695;28;20049;-66
2023/08/29 02:46:05;;;;;;;0.80;0.80;;;;;;;18.55;78.84;96303.63;5041189;28;20084;-65
2023/08/29 02:48:31;;;;;;;0.80;0.80;;;;;;;18.55;78.71;96301.63;5039531;28;20053;-65
2023/08/29 02:50:58;;;;;;;0.80;0.80;;;;;;;18.44;78.54;96291.91;5044086;28;20055;-66
2023/08/29 02:53:25;;;;;;;0.80;0.80;;;;;;;18.61;78.56;96316.69;5043677;28;20061;-66
2023/08/29 02:55:52;;;;;;;0.77;0.77;;;;;;;18.60;78.41;96298.31;5043586;28;20450;-65
2023/08/29 02:58:19;;;;;;;0.80;0.80;;;;;;;18.07;77.88;96228.72;5043986;28;20615;-65
2023/08/29 03:00:47;;;;;;;0.75;0.75;;;;;;;18.46;78.31;96300.69;5044342;28;20045;-65
2023/08/29 03:03:15;;;;;;;0.80;0.80;;;;;;;18.46;78.44;96309.09;5044134;28;20045;-65
2023/08/29 03:05:42;;;;;;;0.70;0.70;;;;;;;18.40;78.60;96308.81;5043876;28;20048;-64
2023/08/29 03:08:09;;;;;;;0.80;0.80;;;;;;;18.45;78.51;96302.69;5042113;28;20470;-66
2023/08/29 03:10:36;;;;;;;0.80;0.80;;;;;;;18.45;78.70;96302.69;5042016;28;20052;-66
2023/08/29 03:13:03;;;;;;;0.80;0.80;;;;;;;18.48;78.43;96293.38;5043483;28;20512;-65
2023/08/29 03:15:33;;;;;;;0.80;0.80;;;;;;;18.43;78.80;96293.91;5041670;28;20504;-65
2023/08/29 03:18:00;;;;;;;0.80;0.80;;;;;;;17.96;79.93;96254.22;5043356;28;20133;-66
2023/08/29 03:20:27;;;;;;;0.73;0.73;;;;;;;17.21;83.84;96259.16;5032243;28;20072;-65
2023/08/29 03:22:54;;;;;;;0.70;0.70;;;;;;;17.14;86.76;96309.66;5043074;28;20055;-65
2023/08/29 03:25:21;;;;;;;0.80;0.80;;;;;;;16.57;87.22;96225.28;5043073;28;20057;-65
2023/08/29 03:27:49;;;;;;;0.80;0.80;;;;;;;17.31;86.18;96296.53;5043592;28;20048;-65
2023/08/29 03:30:15;;;;;;;0.70;0.70;;;;;;;17.22;84.49;96266.31;5043316;28;20087;-65
2023/08/29 03:32:42;;;;;;;0.80;0.80;;;;;;;17.57;83.99;96303.97;5043756;28;20454;-65
2023/08/29 03:35:09;;;;;;;0.70;0.70;;;;;;;17.73;82.69;96301.22;5043356;28;20089;-65
2023/08/29 03:37:36;;;;;;;0.70;0.70;;;;;;;17.69;82.23;96300.50;5041464;28;20093;-65
2023/08/29 03:40:03;;;;;;;0.80;0.80;;;;;;;17.25;83.18;96259.84;5042869;28;20458;-66
2023/08/29 03:42:29;;;;;;;0.70;0.70;;;;;;;17.72;82.08;96299.66;5042708;28;20061;-65
2023/08/29 03:44:56;;;;;;;0.77;0.77;;;;;;;17.57;82.52;96275.97;5043154;28;20053;-65
2023/08/29 03:47:23;;;;;;;0.77;0.77;;;;;;;17.32;83.07;96247.72;5041712;28;20203;-65
2023/08/29 03:49:50;;;;;;;0.70;0.70;;;;;;;17.84;82.67;96301.75;5043427;28;20060;-65
2023/08/29 03:52:26;;;;;;;0.80;0.80;;;;;;;17.90;82.00;96305.63;5041570;28;20049;-65
2023/08/29 03:54:53;;;;;;;0.80;0.80;;;;;;;17.98;81.68;96301.44;5042655;28;20141;-65
2023/08/29 03:57:22;;;;;;;0.75;0.75;;;;;;;18.07;81.16;96296.78;5042609;28;20052;-64
2023/08/29 03:59:49;;;;;;;0.80;0.80;;;;;;;18.16;80.64;96290.59;5042389;28;20056;-65
2023/08/29 04:02:16;;;;;;;0.80;0.80;;;;;;;17.79;79.47;96226.63;5035271;28;20483;-65
2023/08/29 04:04:44;;;;;;;0.70;0.70;;;;;;;18.10;80.21;96286.72;5022609;28;20439;-65
2023/08/29 04:07:11;;;;;;;0.80;0.80;;;;;;;18.20;79.87;96296.88;5022657;28;20128;-65
2023/08/29 04:09:39;;;;;;;0.80;0.80;;;;;;;18.17;80.30;96297.75;5021272;28;20049;-65
2023/08/29 04:12:08;;;;;;;0.70;0.70;;;;;;;18.29;79.15;96299.84;5022933;28;20483;-65
2023/08/29 04:14:37;;;;;;;0.80;0.80;;;;;;;17.95;79.47;96252.66;5022696;28;20201;-64
2023/08/29 04:17:04;;;;;;;0.80;0.80;;;;;;;18.35;78.94;96292.50;5022693;28;20053;-65
2023/08/29 04:19:30;;;;;;;0.80;0.80;;;;;;;18.36;78.79;96277.25;5022130;28;20516;-66
2023/08/29 04:21:57;;;;;;;0.80;0.80;;;;;;;18.51;77.86;96286.13;5020943;28;20339;-64
2023/08/29 04:24:24;;;;;;;0.80;0.80;;;;;;;18.43;78.11;96288.31;5022497;28;20058;-65
2023/08/29 04:26:50;;;;;;;0.80;0.80;;;;;;;15.02;77.53;95881.19;5022109;28;20049;-65
2023/08/29 04:29:17;;;;;;;0.80;0.80;;;;;;;18.52;77.71;96280.06;5021995;28;20045;-65
2023/08/29 04:31:44;;;;;;;0.80;0.80;;;;;;;18.34;77.76;96234.03;5021729;28;20057;-65
2023/08/29 04:34:10;;;;;;;0.80;0.80;;;;;;;18.61;77.33;96246.56;5021690;28;20092;-64
2023/08/29 04:36:37;;;;;;;0.90;0.90;;;;;;;18.64;76.53;96231.66;5022102;28;20060;-65
2023/08/29 04:39:04;;;;;;;0.80;0.80;;;;;;;19.05;76.11;96273.78;5020694;28;20050;-65
2023/08/29 04:41:31;;;;;;;0.90;0.90;;;;;;;19.23;74.95;96262.84;5022243;28;20053;-65
2023/08/29 04:43:58;;;;;;;0.80;0.80;;;;;;;19.39;74.44;96268.41;5022490;28;20124;-65
2023/08/29 04:46:25;;;;;;;0.85;0.85;;;;;;;19.21;73.39;96220.38;5023820;28;20415;-65
2023/08/29 04:48:51;;;;;;;0.80;0.80;;;;;;;19.52;73.31;96263.59;5016351;28;20061;-65
2023/08/29 04:51:18;;;;;;;0.88;0.88;;;;;;;19.63;72.66;96256.88;5021910;28;20500;-65
2023/08/29 04:53:46;;;;;;;0.80;0.80;;;;;;;19.78;72.04;96260.78;5021345;28;20570;-66
2023/08/29 04:56:13;;;;;;;0.80;0.80;;;;;;;19.94;71.65;96249.44;5022733;28;20053;-65
2023/08/29 04:58:40;;;;;;;0.80;0.80;;;;;;;20.01;71.59;96246.41;5022580;28;20049;-66
2023/08/29 05:01:07;;;;;;;0.80;0.80;;;;;;;20.16;70.72;96250.34;5022180;28;20056;-66
2023/08/29 05:03:34;;;;;;;0.80;0.80;;;;;;;20.37;69.68;96249.66;5022014;28;20119;-67
2023/08/29 05:06:01;;;;;;;0.90;0.90;;;;;;;20.36;69.29;96260.09;5022417;28;20497;-66
2023/08/29 05:08:27;;;;;;;0.95;0.95;;;;;;;20.51;69.37;96254.78;5022512;28;20057;-67
2023/08/29 05:10:54;;;;;;;0.90;0.90;;;;;;;20.63;69.18;96245.50;5022277;28;20061;-67
2023/08/29 05:13:21;;;;;;;0.90;0.90;;;;;;;20.39;69.21;96202.16;5022461;28;20376;-66
2023/08/29 05:15:47;;;;;;;0.90;0.90;;;;;;;20.80;69.09;96252.56;5022641;28;20057;-65
2023/08/29 05:18:15;;;;;;;1.00;1.00;;;;;;;20.96;67.82;96246.75;5022765;28;20479;-65
2023/08/29 05:20:43;;;;;;;0.90;0.90;;;;;;;20.84;66.81;96217.41;5022427;28;20869;-66
2023/08/29 05:23:09;;;;;;;0.90;0.90;;;;;;;21.09;67.63;96246.72;5021632;28;20077;-65
2023/08/29 05:25:36;;;;;;;1.00;1.00;;;;;;;20.60;66.84;96142.28;5021666;28;20417;-66
2023/08/29 05:28:03;;;;;;;1.00;1.00;;;;;;;21.48;66.52;96251.66;5021787;28;20057;-65
2023/08/29 05:30:31;;;;;;;1.00;1.00;;;;;;;21.59;67.45;96260.50;5024412;28;20539;-63
2023/08/29 05:32:58;;;;;;;1.05;1.05;;;;;;;21.13;67.05;96222.81;5008854;28;20056;-61
2023/08/29 05:35:25;;;;;;;1.00;1.00;;;;;;;21.43;67.48;96272.78;5005815;28;20046;-64
2023/08/29 05:37:51;;;;;;;0.90;0.90;;;;;;;21.37;67.18;96271.00;5006671;28;20112;-61
2023/08/29 05:40:18;;;;;;;0.98;0.98;;;;;;;21.38;67.10;96258.47;5011281;28;20048;-61
2023/08/29 05:42:45;;;;;;;0.90;0.90;;;;;;;21.68;65.94;96295.16;5030804;28;20045;-64
2023/08/29 05:47:34;;;;;;;0.80;0.80;;;;;;;21.90;65.68;96269.75;5045155;28;20429;-61
2023/08/29 05:50:01;;;;;;;1.00;1.00;;;;;;;21.67;65.55;96234.38;5036267;28;20053;-66
2023/08/29 05:52:28;;;;;;;1.00;1.00;;;;;;;21.39;65.81;96162.22;5037934;28;20166;-62
2023/08/29 05:54:55;;;;;;;1.02;1.02;;;;;;;22.29;65.63;96275.41;5030852;28;20077;-62
2023/08/29 05:57:22;;;;;;;1.10;1.10;;;;;;;22.10;65.74;96222.97;5027951;28;20052;-65
2023/08/29 05:59:49;;;;;;;0.90;0.90;;;;;;;22.31;65.34;96236.22;5034655;28;20046;-62
2023/08/29 06:02:15;;;;;;;1.00;1.00;;;;;;;22.75;64.83;96261.41;5037921;28;20063;-63
2023/08/29 06:04:42;;;;;;;0.90;0.90;;;;;;;23.06;63.44;96259.22;5036853;28;20335;-61
2023/08/29 06:07:10;;;;;;;0.90;0.90;;;;;;;23.28;63.32;96257.84;5030002;28;20087;-64
2023/08/29 06:09:37;;;;;;;1.00;1.00;;;;;;;22.78;63.76;96204.75;5029290;28;20141;-64
2023/08/29 06:12:05;;;;;;;1.00;1.00;;;;;;;23.41;62.44;96257.66;5034803;28;20048;-62
2023/08/29 06:14:32;;;;;;;0.90;0.90;;;;;;;23.61;61.15;96232.47;5024855;28;20064;-62
2023/08/29 06:16:58;;;;;;;1.00;1.00;;;;;;;23.88;59.52;96229.56;5041908;28;20076;-61
2023/08/29 06:19:25;;;;;;;1.10;1.10;;;;;;;24.27;58.54;96251.09;5036758;28;20045;-61
2023/08/29 06:21:52;;;;;;;0.90;0.90;;;;;;;23.77;57.74;96179.13;5032494;28;20060;-67
2023/08/29 06:24:18;;;;;;;1.15;1.15;;;;;;;24.08;56.77;96161.91;5030577;28;20037;-63
2023/08/29 06:26:45;;;;;;;1.20;1.20;;;;;;;24.87;55.90;96240.38;5019101;28;20053;-62
2023/08/29 06:29:12;;;;;;;1.27;1.27;;;;;;;25.09;55.52;96238.00;5027874;28;20360;-63
2023/08/29 06:31:40;;;;;;;1.10;1.10;;;;;;;24.66;54.54;96124.53;5030942;28;20048;-60
2023/08/29 06:34:08;;;;;;;1.20;1.20;;;;;;;25.25;53.11;96172.31;5019637;28;20547;-63
2023/08/29 06:36:34;;;;;;;1.25;1.25;;;;;;;25.89;52.13;96234.81;5036905;28;20059;-61
2023/08/29 06:39:02;;;;;;;1.40;1.40;;;;;;;26.08;51.31;96239.03;5038074;28;20057;-61
2023/08/29 06:41:28;;;;;;;1.27;1.27;;;;;;;26.16;50.31;96222.41;5037827;28;20049;-60
2023/08/29 06:43:55;;;;;;;1.40;1.40;;;;;;;26.30;50.38;96210.22;5036730;28;20076;-62
2023/08/29 06:46:23;;;;;;;1.23;1.23;;;;;;;26.58;48.57;96231.28;5034624;28;20141;-62
2023/08/29 06:48:49;;;;;;;1.63;1.63;;;;;;;26.79;48.63;96227.22;5036803;28;20707;-62
2023/08/29 06:51:16;;;;;;;1.40;1.40;;;;;;;26.93;47.47;96222.72;5035863;28;20060;-63
2023/08/29 06:53:43;;;;;;;1.40;1.40;;;;;;;26.55;46.45;96204.66;5035325;28;20063;-62
2023/08/29 06:56:09;;;;;;;1.33;1.33;;;;;;;25.78;47.38;96174.28;5036146;28;20438;-61
2023/08/29 06:58:37;;;;;;;1.20;1.20;;;;;;;26.26;46.81;96186.91;5026010;28;20142;-62
2023/08/29 07:01:04;;;;;;;1.52;1.52;;;;;;;26.85;46.59;96215.91;5022152;28;20049;-61
2023/08/29 07:03:31;;;;;;;1.40;1.40;;;;;;;27.03;46.26;96221.31;5021864;28;20045;-66
2023/08/29 07:05:58;;;;;;;1.52;1.52;;;;;;;27.06;45.87;96192.66;5021754;28;20668;-62
2023/08/29 07:08:24;;;;;;;1.67;1.67;;;;;;;27.36;45.95;96211.09;5022047;28;20057;-61
2023/08/29 07:10:51;;;;;;;1.63;1.63;;;;;;;27.29;44.61;96154.66;5014517;28;20129;-63
2023/08/29 07:13:18;;;;;;;1.42;1.42;;;;;;;27.65;43.65;96218.63;5023760;28;20057;-64
2023/08/29 07:15:45;;;;;;;1.63;1.63;;;;;;;27.28;42.28;96221.38;5020608;28;20045;-62
2023/08/29 07:18:13;;;;;;;1.58;1.58;;;;;;;27.50;41.69;96204.53;5021755;28;20073;-60
2023/08/29 07:20:40;;;;;;;1.48;1.48;;;;;;;27.22;41.47;96155.06;5020396;28;20068;-63
2023/08/29 07:23:07;;;;;;;1.50;1.50;;;;;;;27.20;40.45;96166.19;5022645;28;20045;-60
2023/08/29 07:25:42;;;;;;;1.48;1.48;;;;;;;27.43;40.34;96165.13;5022696;28;20058;-64
2023/08/29 07:28:11;;;;;;;1.60;1.60;;;;;;;26.99;39.88;96062.28;5019201;28;20046;-72
2023/08/29 07:30:47;;;;;;;1.60;1.60;;;;;;;28.25;39.52;96200.53;5020072;28;20147;-74
2023/08/29 07:33:14;;;;;;;1.85;1.85;;;;;;;27.78;38.64;96225.50;5019466;28;20063;-62
2023/08/29 07:35:42;;;;;;;1.30;1.30;;;;;;;28.01;38.73;96204.47;5022807;28;20123;-66
2023/08/29 07:38:09;;;;;;;1.60;1.60;;;;;;;28.03;38.90;96167.75;5022055;28;20283;-67
2023/08/29 07:40:36;;;;;;;1.70;1.70;;;;;;;26.45;38.17;95909.84;5023434;28;20184;-69
2023/08/29 07:43:05;;;;;;;1.50;1.50;;;;;;;27.80;37.42;96106.22;5022769;28;20076;-71
2023/08/29 07:45:33;;;;;;;1.65;1.65;;;;;;;28.30;37.27;96146.41;5018185;28;20147;-68
2023/08/29 07:48:00;;;;;;;1.95;1.95;;;;;;;28.32;37.63;96194.34;5022455;28;20053;-62
2023/08/29 07:50:27;;;;;;;1.60;1.60;;;;;;;28.13;38.49;96194.75;5021969;28;20132;-74
2023/08/29 07:52:54;;;;;;;1.83;1.83;;;;;;;28.56;38.29;96192.72;5022974;28;20057;-72
2023/08/29 07:55:21;;;;;;;1.73;1.73;;;;;;;27.84;38.28;96131.59;5010731;28;20049;-72
2023/08/29 07:57:48;;;;;;;1.42;1.42;;;;;;;28.55;38.51;96201.78;5002684;28;20327;-64
2023/08/29 08:00:16;;;;;;;2.00;2.00;;;;;;;28.62;37.81;96142.22;5010656;28;20416;-61
2023/08/29 08:02:44;;;;;;;1.63;1.63;;;;;;;29.02;38.02;96200.97;5013767;28;20617;-65
2023/08/29 08:05:13;;;;;;;1.80;1.80;;;;;;;28.92;37.84;96185.38;5013775;28;20049;-60
2023/08/29 08:07:42;;;;;;;1.90;1.90;;;;;;;28.02;37.35;96001.03;5015460;28;20207;-67
2023/08/29 08:10:11;;;;;;;1.80;1.80;;;;;;;29.12;37.54;96176.63;5013063;28;20719;-68
2023/08/29 08:12:39;;;;;;;1.85;1.85;;;;;;;29.21;37.21;96208.56;5022143;28;20053;-61
2023/08/29 08:15:07;;;;;;;1.88;1.88;;;;;;;29.19;37.18;96176.16;5014923;28;20045;-69
2023/08/29 08:17:36;;;;;;;1.90;1.90;;;;;;;29.35;36.88;96155.44;5023302;28;20404;-62
2023/08/29 08:20:08;;;;;;;1.60;1.60;;;;;;;29.62;37.18;96168.97;5021163;28;20091;-59
2023/08/29 08:22:36;;;;;;;1.75;1.75;;;;;;;29.71;37.29;96171.59;5022104;28;20069;-60
2023/08/29 08:25:04;;;;;;;1.80;1.80;;;;;;;29.99;36.81;96174.47;5020157;28;20176;-69
2023/08/29 08:27:30;;;;;;;1.75;1.75;;;;;;;29.50;37.04;96081.75;5021644;28;20061;-61
2023/08/29 08:29:57;;;;;;;1.77;1.77;;;;;;;29.92;36.78;96135.78;5021653;28;20045;-64
2023/08/29 08:32:24;;;;;;;2.15;2.15;;;;;;;29.87;36.87;96090.88;5019823;28;20055;-64
2023/08/29 08:34:51;;;;;;;2.00;2.00;;;;;;;30.52;37.49;96154.94;5019839;28;20087;-68
2023/08/29 08:37:18;;;;;;;2.00;2.00;;;;;;;30.20;37.24;96070.00;5021382;28;20060;-70
2023/08/29 08:39:45;;;;;;;2.00;2.00;;;;;;;30.42;37.30;96122.19;5020908;28;20053;-69
2023/08/29 08:42:12;;;;;;;1.70;1.70;;;;;;;30.06;38.29;96149.00;5021606;28;20049;-62
2023/08/29 08:44:39;;;;;;;2.00;2.00;;;;;;;29.90;37.71;96078.38;5020963;28;20527;-61
2023/08/29 08:47:07;;;;;;;1.70;1.70;;;;;;;30.66;37.70;96148.13;5019399;28;20057;-68
2023/08/29 08:49:34;;;;;;;1.50;1.50;;;;;;;30.48;38.59;96142.97;5019575;28;20087;-68
2023/08/29 08:52:03;;;;;;;1.95;1.95;;;;;;;30.49;38.49;96138.03;5021421;28;20148;-62
2023/08/29 08:54:31;;;;;;;1.60;1.60;;;;;;;30.60;38.74;96129.44;5018961;28;20110;-68
2023/08/29 08:56:58;;;;;;;5.00;4.90;;;;;;;30.37;37.80;96045.81;5020328;28;20052;-68
2023/08/29 08:59:25;;;;;;;5.25;5.15;;;;;;;30.44;37.63;96056.72;5020585;28;20050;-61
2023/08/29 09:01:56;;;;;;;5.22;5.13;;;;;;;30.78;38.02;96121.06;5020980;28;20506;-61
2023/08/29 09:04:23;;;;;;;5.30;5.20;;;;;;;30.89;37.99;96112.41;5005799;28;20053;-69
2023/08/29 09:06:50;;;;;;;4.70;4.60;;;;;;;31.29;37.68;96124.41;5017241;28;20132;-70
2023/08/29 09:09:19;;;;;;;4.95;4.85;;;;;;;31.31;37.27;96110.38;5021389;28;20444;-68
2023/08/29 09:11:54;;;;;;;4.63;4.53;;;;;;;31.41;37.19;96074.41;5020551;28;20049;-68
2023/08/29 09:14:23;;;;;;;5.15;5.05;;;;;;;31.88;37.02;96095.91;5020576;28;20049;-62
2023/08/29 09:16:55;;;;;;;5.03;4.93;;;;;;;32.13;36.33;96088.88;5019955;28;20055;-67
2023/08/29 09:19:23;;;;;;;4.65;4.55;;;;;;;32.33;35.93;96091.25;5018836;28;20049;-68
2023/08/29 09:21:50;;;;;;;5.35;5.25;;;;;;;32.06;35.64;96081.66;5020587;28;20050;-62
2023/08/29 09:24:34;;;;;;;4.97;4.88;;;;;;;32.49;34.77;96078.88;5020101;28;20079;-68
2023/08/29 09:27:11;;;;;;;4.90;4.80;;;;;;;32.86;34.25;96087.53;5021086;28;20050;-68
2023/08/29 09:29:38;;;;;;;5.30;5.20;;;;;;;33.09;34.15;96077.31;5020449;28;20076;-62
2023/08/29 09:32:13;;;;;;;5.32;5.22;;;;;;;33.19;34.02;96077.69;5019566;28;20057;-69
2023/08/29 09:34:41;;;;;;;5.15;5.05;;;;;;;32.82;34.13;96046.88;5019026;28;20508;-69
2023/08/29 09:37:11;;;;;;;4.95;4.85;;;;;;;33.22;33.51;96080.25;5019106;28;20053;-68
2023/08/29 09:39:38;;;;;;;4.97;4.88;;;;;;;33.09;33.23;96014.16;5020594;28;20068;-62
2023/08/29 09:42:07;;;;;;;4.82;4.72;;;;;;;33.82;32.19;96086.38;5020836;28;20053;-61
2023/08/29 09:44:36;;;;;;;5.60;5.43;;;;;;;33.66;32.39;96033.63;5019087;28;20575;-69
2023/08/29 09:47:09;;;;;;;4.80;4.70;;;;;;;33.38;32.59;96053.41;5019981;28;20521;-69
2023/08/29 09:49:43;;;;;;;5.13;5.03;;;;;;;33.90;32.06;96075.03;5019979;28;20159;-63
2023/08/29 09:52:10;;;;;;;4.57;4.47;;;;;;;33.98;31.97;96075.94;5019556;28;20311;-68
2023/08/29 09:54:50;;;;;;;4.95;4.85;;;;;;;33.69;31.95;96032.53;5019939;28;20080;-63
2023/08/29 09:57:19;;;;;;;4.72;4.63;;;;;;;33.97;31.91;96057.94;5019783;28;20055;-61
2023/08/29 09:59:47;;;;;;;4.95;4.85;;;;;;;34.08;32.19;96068.44;5019940;28;20136;-61
2023/08/29 10:02:14;;;;;;;5.00;4.90;;;;;;;34.28;32.13;96064.94;5018268;28;20059;-67
2023/08/29 10:04:46;;;;;;;5.30;5.20;;;;;;;34.08;32.17;96045.44;5018122;28;20111;-60
2023/08/29 10:07:24;;;;;;;5.32;5.22;;;;;;;34.28;32.20;96064.94;5018171;28;20064;-63
2023/08/29 10:09:51;;;;;;;5.18;5.07;;;;;;;33.99;32.38;96017.91;5019593;28;20069;-68
2023/08/29 10:12:19;;;;;;;5.43;5.32;;;;;;;34.01;32.35;96020.22;5020306;28;20061;-67
2023/08/29 10:14:46;;;;;;;5.22;5.13;;;;;;;34.25;32.87;96040.16;5017634;28;20056;-61
2023/08/29 10:17:14;;;;;;;5.00;4.90;;;;;;;34.22;32.75;96019.03;5019867;28;20625;-61
2023/08/29 10:19:59;;;;;;;5.25;5.15;;;;;;;34.12;32.75;96012.16;5019502;28;20053;-63
2023/08/29 10:22:28;;;;;;;5.32;5.22;;;;;;;34.26;32.99;96045.34;5019138;28;20942;-68
2023/08/29 10:24:58;;;;;;;4.90;4.80;;;;;;;34.07;32.54;95992.13;5008863;28;20049;-64
2023/08/29 10:27:25;;;;;;;4.97;4.88;;;;;;;34.51;32.73;96037.31;5021616;28;20495;-66
2023/08/29 10:29:53;;;;;;;5.38;5.28;;;;;;;34.57;32.60;96040.84;5017293;28;20053;-70
2023/08/29 10:32:21;;;;;;;4.60;4.50;;;;;;;34.67;32.55;96033.28;5009509;28;20041;-68
2023/08/29 10:34:51;;;;;;;5.03;4.93;;;;;;;34.41;31.82;96004.56;5012570;28;20045;-63
2023/08/29 10:37:19;;;;;;;4.70;4.60;;;;;;;34.46;31.76;96003.69;5023370;28;20096;-62
2023/08/29 10:39:53;;;;;;;4.72;4.63;;;;;;;34.95;31.69;96030.63;5020423;28;20053;-61
2023/08/29 10:42:21;;;;;;;5.25;5.15;;;;;;;35.06;31.57;96030.38;5020007;28;20069;-64
2023/08/29 10:44:49;;;;;;;5.28;5.18;;;;;;;34.59;32.00;95969.13;5020344;28;20053;-62
2023/08/29 10:47:23;;;;;;;4.70;4.60;;;;;;;33.59;31.92;95820.91;5006288;28;20604;-65
2023/08/29 10:49:58;;;;;;;5.20;5.10;;;;;;;34.03;32.32;95896.84;5014203;28;20064;-62
2023/08/29 10:52:44;;;;;;;5.57;5.43;;;;;;;34.68;31.81;96011.84;5021872;28;20713;-62
2023/08/29 10:55:22;;;;;;;5.43;5.32;;;;;;;34.64;32.41;96011.38;5020697;28;20053;-61
2023/08/29 10:57:51;;;;;;;5.05;4.95;;;;;;;34.51;32.09;95991.28;5020676;28;20532;-65
2023/08/29 11:00:41;;;;;;;5.13;5.03;;;;;;;34.97;31.57;96019.31;5007169;28;20052;-66
2023/08/29 11:03:08;;;;;;;5.10;5.00;;;;;;;34.87;31.69;95989.44;5032294;28;20134;-64
2023/08/29 11:05:39;;;;;;;4.70;4.60;;;;;;;35.26;31.37;96006.59;5014154;28;20927;-65
2023/08/29 11:08:24;;;;;;;5.25;5.15;;;;;;;34.95;30.98;95990.31;5022320;28;20163;-63
2023/08/29 11:11:09;;;;;;;5.95;5.75;;;;;;;35.14;31.59;96002.44;5020088;28;20132;-69
2023/08/29 11:13:53;;;;;;;5.65;5.45;;;;;;;35.06;31.46;95998.69;5020037;28;20060;-63
2023/08/29 11:16:20;;;;;;;4.80;4.70;;;;;;;35.30;31.11;96001.25;5020945;28;20069;-65
2023/08/29 11:18:58;;;;;;;5.00;4.90;;;;;;;34.17;30.57;95797.72;5011413;28;20056;-63
2023/08/29 11:21:28;;;;;;;5.00;4.90;;;;;;;35.58;30.61;95992.72;5016667;28;20078;-62
2023/08/29 11:23:57;;;;;;;5.65;5.45;;;;;;;35.63;30.81;95962.97;5021146;28;20103;-66
2023/08/29 11:26:46;;;;;;;5.97;5.78;;;;;;;35.51;30.47;96002.06;5019774;28;20057;-61
2023/08/29 11:29:13;;;;;;;5.82;5.63;;;;;;;35.15;30.72;95969.41;5020539;28;20057;-68
2023/08/29 11:31:42;;;;;;;5.10;5.00;;;;;;;35.13;30.32;95926.00;5020015;28;20130;-70
2023/08/29 11:34:18;;;;;;;5.03;4.93;;;;;;;35.62;29.19;95955.66;5016670;28;20045;-73
2023/08/29 11:36:50;;;;;;;5.65;5.45;;;;;;;35.80;30.30;95951.00;5021628;28;20552;-80
2023/08/29 11:39:21;;;;;;;5.55;5.38;;;;;;;35.42;29.75;95875.78;5022183;28;20065;-68
2023/08/29 11:41:50;;;;;;;4.93;4.82;;;;;;;35.43;29.46;95825.47;5011255;28;20057;-72
2023/08/29 11:44:37;;;;;;;5.40;5.30;;;;;;;36.44;29.63;95958.41;5014265;28;20508;-67